sensor_id;sensor_type;location;lat;lon;timestamp;P1;durP1;ratioP1;P2;durP2;ratioP2
63943;SDS011;50121;51.218;7.664;2023-11-19T00:01:00;4.53;;;4.28;;
63943;SDS011;50121;51.218;7.664;2023-11-19T00:03:36;4.30;;;4.10;;
63943;SDS011;50121;51.218;7.664;2023-11-19T00:06:03;4.30;;;4.10;;
63943;SDS011;50121;51.218;7.664;2023-11-19T00:08:31;4.50;;;4.30;;
63943;SDS011;50121;51.218;7.664;2023-11-19T00:10:59;4.35;;;4.15;;
63943;SDS011;50121;51.218;7.664;2023-11-19T00:13:27;4.03;;;3.83;;
63943;SDS011;50121;51.218;7.664;2023-11-19T00:15:55;4.68;;;4.38;;
63943;SDS011;50121;51.218;7.664;2023-11-19T00:18:23;4.40;;;4.20;;
63943;SDS011;50121;51.218;7.664;2023-11-19T00:20:50;4.50;;;4.20;;
63943;SDS011;50121;51.218;7.664;2023-11-19T00:23:18;4.70;;;4.40;;
63943;SDS011;50121;51.218;7.664;2023-11-19T00:25:45;4.47;;;4.28;;
63943;SDS011;50121;51.218;7.664;2023-11-19T00:28:14;4.60;;;4.30;;
63943;SDS011;50121;51.218;7.664;2023-11-19T00:30:42;4.85;;;4.55;;
63943;SDS011;50121;51.218;7.664;2023-11-19T00:33:09;4.85;;;4.57;;
63943;SDS011;50121;51.218;7.664;2023-11-19T00:35:37;4.68;;;4.47;;
63943;SDS011;50121;51.218;7.664;2023-11-19T00:38:05;4.93;;;4.63;;
63943;SDS011;50121;51.218;7.664;2023-11-19T00:40:33;4.90;;;4.60;;
63943;SDS011;50121;51.218;7.664;2023-11-19T00:43:01;5.03;;;4.72;;
63943;SDS011;50121;51.218;7.664;2023-11-19T00:45:29;5.40;;;5.00;;
63943;SDS011;50121;51.218;7.664;2023-11-19T00:47:56;5.75;;;5.35;;
63943;SDS011;50121;51.218;7.664;2023-11-19T00:50:26;5.05;;;4.75;;
63943;SDS011;50121;51.218;7.664;2023-11-19T00:52:53;5.18;;;4.88;;
63943;SDS011;50121;51.218;7.664;2023-11-19T00:55:21;4.93;;;4.63;;
63943;SDS011;50121;51.218;7.664;2023-11-19T00:57:48;5.53;;;5.13;;
63943;SDS011;50121;51.218;7.664;2023-11-19T01:00:16;6.03;;;5.53;;
63943;SDS011;50121;51.218;7.664;2023-11-19T01:02:50;5.72;;;5.25;;
63943;SDS011;50121;51.218;7.664;2023-11-19T01:05:17;5.40;;;5.05;;
63943;SDS011;50121;51.218;7.664;2023-11-19T01:07:48;5.70;;;5.20;;
63943;SDS011;50121;51.218;7.664;2023-11-19T01:10:16;5.65;;;5.13;;
63943;SDS011;50121;51.218;7.664;2023-11-19T01:12:45;5.70;;;5.30;;
63943;SDS011;50121;51.218;7.664;2023-11-19T01:15:13;6.07;;;5.60;;
63943;SDS011;50121;51.218;7.664;2023-11-19T01:17:40;6.38;;;5.88;;
63943;SDS011;50121;51.218;7.664;2023-11-19T01:20:17;6.13;;;5.72;;
63943;SDS011;50121;51.218;7.664;2023-11-19T01:22:45;6.28;;;5.68;;
63943;SDS011;50121;51.218;7.664;2023-11-19T01:25:16;6.05;;;5.65;;
63943;SDS011;50121;51.218;7.664;2023-11-19T01:27:44;5.70;;;5.30;;
63943;SDS011;50121;51.218;7.664;2023-11-19T01:30:12;5.88;;;5.47;;
63943;SDS011;50121;51.218;7.664;2023-11-19T01:32:39;5.82;;;5.32;;
63943;SDS011;50121;51.218;7.664;2023-11-19T01:35:07;5.88;;;5.40;;
63943;SDS011;50121;51.218;7.664;2023-11-19T01:37:35;5.60;;;5.20;;
63943;SDS011;50121;51.218;7.664;2023-11-19T01:40:03;5.63;;;5.20;;
63943;SDS011;50121;51.218;7.664;2023-11-19T01:42:36;5.32;;;5.00;;
63943;SDS011;50121;51.218;7.664;2023-11-19T01:45:04;5.25;;;4.90;;
63943;SDS011;50121;51.218;7.664;2023-11-19T01:47:34;5.50;;;5.10;;
63943;SDS011;50121;51.218;7.664;2023-11-19T01:50:02;5.10;;;4.80;;
63943;SDS011;50121;51.218;7.664;2023-11-19T01:52:34;5.22;;;4.90;;
63943;SDS011;50121;51.218;7.664;2023-11-19T01:55:05;5.15;;;4.80;;
63943;SDS011;50121;51.218;7.664;2023-11-19T01:57:34;5.57;;;5.05;;
63943;SDS011;50121;51.218;7.664;2023-11-19T02:00:04;5.45;;;5.05;;
63943;SDS011;50121;51.218;7.664;2023-11-19T02:02:39;5.75;;;5.35;;
63943;SDS011;50121;51.218;7.664;2023-11-19T02:05:07;5.85;;;5.45;;
63943;SDS011;50121;51.218;7.664;2023-11-19T02:07:35;5.65;;;5.25;;
63943;SDS011;50121;51.218;7.664;2023-11-19T02:10:03;5.32;;;5.03;;
63943;SDS011;50121;51.218;7.664;2023-11-19T02:12:32;6.63;;;6.13;;
63943;SDS011;50121;51.218;7.664;2023-11-19T02:15:02;6.40;;;5.90;;
63943;SDS011;50121;51.218;7.664;2023-11-19T02:17:31;6.30;;;5.90;;
63943;SDS011;50121;51.218;7.664;2023-11-19T02:19:58;6.50;;;6.10;;
63943;SDS011;50121;51.218;7.664;2023-11-19T02:22:33;8.55;;;6.45;;
63943;SDS011;50121;51.218;7.664;2023-11-19T02:25:04;7.07;;;6.57;;
63943;SDS011;50121;51.218;7.664;2023-11-19T02:27:52;7.30;;;6.40;;
63943;SDS011;50121;51.218;7.664;2023-11-19T02:30:24;7.20;;;6.60;;
63943;SDS011;50121;51.218;7.664;2023-11-19T02:32:55;7.32;;;6.70;;
63943;SDS011;50121;51.218;7.664;2023-11-19T02:35:24;7.50;;;6.80;;
63943;SDS011;50121;51.218;7.664;2023-11-19T02:37:52;8.40;;;6.97;;
63943;SDS011;50121;51.218;7.664;2023-11-19T02:40:20;7.43;;;6.82;;
63943;SDS011;50121;51.218;7.664;2023-11-19T02:42:51;7.88;;;6.82;;
63943;SDS011;50121;51.218;7.664;2023-11-19T02:45:19;8.32;;;7.13;;
63943;SDS011;50121;51.218;7.664;2023-11-19T02:47:49;8.57;;;7.43;;
63943;SDS011;50121;51.218;7.664;2023-11-19T02:50:17;11.80;;;7.35;;
63943;SDS011;50121;51.218;7.664;2023-11-19T02:52:55;9.85;;;8.15;;
63943;SDS011;50121;51.218;7.664;2023-11-19T02:55:23;9.32;;;8.07;;
63943;SDS011;50121;51.218;7.664;2023-11-19T02:57:51;9.00;;;8.05;;
63943;SDS011;50121;51.218;7.664;2023-11-19T03:00:20;10.77;;;7.47;;
63943;SDS011;50121;51.218;7.664;2023-11-19T03:02:51;12.93;;;7.28;;
63943;SDS011;50121;51.218;7.664;2023-11-19T03:05:25;11.98;;;7.53;;
63943;SDS011;50121;51.218;7.664;2023-11-19T03:07:56;12.43;;;7.53;;
63943;SDS011;50121;51.218;7.664;2023-11-19T03:10:24;9.88;;;7.72;;
63943;SDS011;50121;51.218;7.664;2023-11-19T03:12:52;11.50;;;7.10;;
63943;SDS011;50121;51.218;7.664;2023-11-19T03:15:21;9.60;;;7.32;;
63943;SDS011;50121;51.218;7.664;2023-11-19T03:17:49;9.18;;;7.18;;
63943;SDS011;50121;51.218;7.664;2023-11-19T03:20:17;8.75;;;7.10;;
63943;SDS011;50121;51.218;7.664;2023-11-19T03:22:44;10.88;;;7.32;;
63943;SDS011;50121;51.218;7.664;2023-11-19T03:25:12;10.00;;;6.78;;
63943;SDS011;50121;51.218;7.664;2023-11-19T03:27:39;9.02;;;6.88;;
63943;SDS011;50121;51.218;7.664;2023-11-19T03:30:10;14.10;;;7.25;;
63943;SDS011;50121;51.218;7.664;2023-11-19T03:32:38;12.68;;;6.72;;
63943;SDS011;50121;51.218;7.664;2023-11-19T03:35:06;12.32;;;6.53;;
63943;SDS011;50121;51.218;7.664;2023-11-19T03:37:35;10.02;;;7.68;;
63943;SDS011;50121;51.218;7.664;2023-11-19T03:40:03;14.43;;;7.55;;
63943;SDS011;50121;51.218;7.664;2023-11-19T03:42:31;16.30;;;7.10;;
63943;SDS011;50121;51.218;7.664;2023-11-19T03:44:58;12.55;;;7.57;;
63943;SDS011;50121;51.218;7.664;2023-11-19T03:47:26;14.63;;;6.78;;
63943;SDS011;50121;51.218;7.664;2023-11-19T03:49:54;19.05;;;7.82;;
63943;SDS011;50121;51.218;7.664;2023-11-19T03:52:21;12.68;;;7.28;;
63943;SDS011;50121;51.218;7.664;2023-11-19T03:54:49;13.38;;;7.60;;
63943;SDS011;50121;51.218;7.664;2023-11-19T03:57:16;11.13;;;7.95;;
63943;SDS011;50121;51.218;7.664;2023-11-19T03:59:45;18.05;;;7.20;;
63943;SDS011;50121;51.218;7.664;2023-11-19T04:02:12;15.13;;;7.75;;
63943;SDS011;50121;51.218;7.664;2023-11-19T04:04:40;17.13;;;7.43;;
63943;SDS011;50121;51.218;7.664;2023-11-19T04:07:07;12.43;;;7.85;;
63943;SDS011;50121;51.218;7.664;2023-11-19T04:09:35;15.48;;;7.50;;
63943;SDS011;50121;51.218;7.664;2023-11-19T04:12:04;20.05;;;7.30;;
63943;SDS011;50121;51.218;7.664;2023-11-19T04:14:32;12.30;;;6.80;;
63943;SDS011;50121;51.218;7.664;2023-11-19T04:16:59;9.50;;;6.45;;
63943;SDS011;50121;51.218;7.664;2023-11-19T04:19:27;13.57;;;7.05;;
63943;SDS011;50121;51.218;7.664;2023-11-19T04:21:56;11.20;;;6.53;;
63943;SDS011;50121;51.218;7.664;2023-11-19T04:24:23;10.73;;;6.40;;
63943;SDS011;50121;51.218;7.664;2023-11-19T04:26:51;8.98;;;6.15;;
63943;SDS011;50121;51.218;7.664;2023-11-19T04:29:19;14.65;;;7.00;;
63943;SDS011;50121;51.218;7.664;2023-11-19T04:31:46;11.75;;;5.80;;
63943;SDS011;50121;51.218;7.664;2023-11-19T04:34:14;15.55;;;6.15;;
63943;SDS011;50121;51.218;7.664;2023-11-19T04:36:42;11.98;;;6.35;;
63943;SDS011;50121;51.218;7.664;2023-11-19T04:39:10;15.90;;;5.93;;
63943;SDS011;50121;51.218;7.664;2023-11-19T04:41:51;15.15;;;6.95;;
63943;SDS011;50121;51.218;7.664;2023-11-19T04:44:20;11.18;;;5.72;;
63943;SDS011;50121;51.218;7.664;2023-11-19T04:46:47;13.07;;;6.20;;
63943;SDS011;50121;51.218;7.664;2023-11-19T04:49:15;15.40;;;5.88;;
63943;SDS011;50121;51.218;7.664;2023-11-19T04:51:45;17.60;;;6.00;;
63943;SDS011;50121;51.218;7.664;2023-11-19T04:54:16;17.10;;;5.85;;
63943;SDS011;50121;51.218;7.664;2023-11-19T04:56:45;18.05;;;5.70;;
63943;SDS011;50121;51.218;7.664;2023-11-19T04:59:13;15.70;;;6.15;;
63943;SDS011;50121;51.218;7.664;2023-11-19T05:01:41;19.02;;;6.18;;
63943;SDS011;50121;51.218;7.664;2023-11-19T05:04:08;17.20;;;6.15;;
63943;SDS011;50121;51.218;7.664;2023-11-19T05:06:36;15.25;;;6.18;;
63943;SDS011;50121;51.218;7.664;2023-11-19T05:09:04;20.10;;;6.00;;
63943;SDS011;50121;51.218;7.664;2023-11-19T05:11:34;15.75;;;5.55;;
63943;SDS011;50121;51.218;7.664;2023-11-19T05:14:04;17.55;;;6.00;;
63943;SDS011;50121;51.218;7.664;2023-11-19T05:16:32;20.63;;;6.07;;
63943;SDS011;50121;51.218;7.664;2023-11-19T05:19:00;18.13;;;6.22;;
63943;SDS011;50121;51.218;7.664;2023-11-19T05:21:27;26.27;;;6.47;;
63943;SDS011;50121;51.218;7.664;2023-11-19T05:23:55;18.13;;;6.28;;
63943;SDS011;50121;51.218;7.664;2023-11-19T05:26:23;20.63;;;7.20;;
63943;SDS011;50121;51.218;7.664;2023-11-19T05:28:51;16.63;;;6.22;;
63943;SDS011;50121;51.218;7.664;2023-11-19T05:31:18;18.02;;;6.05;;
63943;SDS011;50121;51.218;7.664;2023-11-19T05:33:46;13.20;;;6.00;;
63943;SDS011;50121;51.218;7.664;2023-11-19T05:36:13;14.57;;;6.40;;
63943;SDS011;50121;51.218;7.664;2023-11-19T05:38:41;23.23;;;6.20;;
63943;SDS011;50121;51.218;7.664;2023-11-19T05:41:08;17.48;;;6.88;;
63943;SDS011;50121;51.218;7.664;2023-11-19T05:43:36;14.52;;;5.97;;
63943;SDS011;50121;51.218;7.664;2023-11-19T05:46:04;18.73;;;6.45;;
63943;SDS011;50121;51.218;7.664;2023-11-19T05:48:44;21.67;;;6.32;;
63943;SDS011;50121;51.218;7.664;2023-11-19T05:51:13;16.77;;;6.03;;
63943;SDS011;50121;51.218;7.664;2023-11-19T05:53:41;17.17;;;5.78;;
63943;SDS011;50121;51.218;7.664;2023-11-19T05:56:09;14.32;;;5.63;;
63943;SDS011;50121;51.218;7.664;2023-11-19T05:58:37;12.50;;;5.40;;
63943;SDS011;50121;51.218;7.664;2023-11-19T06:01:06;20.08;;;5.82;;
63943;SDS011;50121;51.218;7.664;2023-11-19T06:03:34;15.73;;;5.20;;
63943;SDS011;50121;51.218;7.664;2023-11-19T06:06:03;14.40;;;5.40;;
63943;SDS011;50121;51.218;7.664;2023-11-19T06:08:31;13.90;;;6.07;;
63943;SDS011;50121;51.218;7.664;2023-11-19T06:10:59;15.07;;;5.78;;
63943;SDS011;50121;51.218;7.664;2023-11-19T06:13:28;18.70;;;5.90;;
63943;SDS011;50121;51.218;7.664;2023-11-19T06:15:57;16.92;;;5.88;;
63943;SDS011;50121;51.218;7.664;2023-11-19T06:18:25;17.85;;;6.03;;
63943;SDS011;50121;51.218;7.664;2023-11-19T06:20:53;12.70;;;5.38;;
63943;SDS011;50121;51.218;7.664;2023-11-19T06:23:20;15.18;;;5.55;;
63943;SDS011;50121;51.218;7.664;2023-11-19T06:25:48;18.05;;;5.85;;
63943;SDS011;50121;51.218;7.664;2023-11-19T06:28:16;16.40;;;5.80;;
63943;SDS011;50121;51.218;7.664;2023-11-19T06:30:43;18.90;;;5.97;;
63943;SDS011;50121;51.218;7.664;2023-11-19T06:33:13;13.25;;;5.70;;
63943;SDS011;50121;51.218;7.664;2023-11-19T06:35:40;22.27;;;6.05;;
63943;SDS011;50121;51.218;7.664;2023-11-19T06:38:08;18.48;;;6.20;;
63943;SDS011;50121;51.218;7.664;2023-11-19T06:40:36;20.25;;;6.28;;
63943;SDS011;50121;51.218;7.664;2023-11-19T06:43:03;24.25;;;5.88;;
63943;SDS011;50121;51.218;7.664;2023-11-19T06:45:31;16.35;;;5.78;;
63943;SDS011;50121;51.218;7.664;2023-11-19T06:48:01;19.05;;;6.40;;
63943;SDS011;50121;51.218;7.664;2023-11-19T06:50:30;15.75;;;5.97;;
63943;SDS011;50121;51.218;7.664;2023-11-19T06:52:58;16.40;;;5.85;;
63943;SDS011;50121;51.218;7.664;2023-11-19T06:55:26;17.08;;;6.43;;
63943;SDS011;50121;51.218;7.664;2023-11-19T06:57:54;22.75;;;6.05;;
63943;SDS011;50121;51.218;7.664;2023-11-19T07:00:22;23.25;;;5.60;;
63943;SDS011;50121;51.218;7.664;2023-11-19T07:02:49;16.55;;;5.60;;
63943;SDS011;50121;51.218;7.664;2023-11-19T07:05:17;15.38;;;5.35;;
63943;SDS011;50121;51.218;7.664;2023-11-19T07:07:45;18.27;;;5.65;;
63943;SDS011;50121;51.218;7.664;2023-11-19T07:10:13;19.83;;;6.25;;
63943;SDS011;50121;51.218;7.664;2023-11-19T07:12:42;13.45;;;5.60;;
63943;SDS011;50121;51.218;7.664;2023-11-19T07:15:11;19.67;;;6.30;;
63943;SDS011;50121;51.218;7.664;2023-11-19T07:17:39;22.15;;;5.75;;
63943;SDS011;50121;51.218;7.664;2023-11-19T07:20:06;16.60;;;5.50;;
63943;SDS011;50121;51.218;7.664;2023-11-19T07:22:34;16.98;;;5.47;;
63943;SDS011;50121;51.218;7.664;2023-11-19T07:25:02;20.05;;;5.82;;
63943;SDS011;50121;51.218;7.664;2023-11-19T07:27:29;15.35;;;5.45;;
63943;SDS011;50121;51.218;7.664;2023-11-19T07:29:57;19.35;;;5.90;;
63943;SDS011;50121;51.218;7.664;2023-11-19T07:32:24;15.65;;;6.00;;
63943;SDS011;50121;51.218;7.664;2023-11-19T07:34:52;17.75;;;5.75;;
63943;SDS011;50121;51.218;7.664;2023-11-19T07:37:20;19.88;;;6.50;;
63943;SDS011;50121;51.218;7.664;2023-11-19T07:39:47;16.58;;;6.38;;
63943;SDS011;50121;51.218;7.664;2023-11-19T07:42:15;11.48;;;5.97;;
63943;SDS011;50121;51.218;7.664;2023-11-19T07:44:43;20.52;;;6.32;;
63943;SDS011;50121;51.218;7.664;2023-11-19T07:47:10;17.20;;;6.00;;
63943;SDS011;50121;51.218;7.664;2023-11-19T07:49:39;18.60;;;5.80;;
63943;SDS011;50121;51.218;7.664;2023-11-19T07:52:07;20.40;;;6.57;;
63943;SDS011;50121;51.218;7.664;2023-11-19T07:54:46;22.83;;;7.93;;
63943;SDS011;50121;51.218;7.664;2023-11-19T07:57:14;22.85;;;6.35;;
63943;SDS011;50121;51.218;7.664;2023-11-19T07:59:42;13.85;;;5.72;;
63943;SDS011;50121;51.218;7.664;2023-11-19T08:02:09;15.27;;;5.80;;
63943;SDS011;50121;51.218;7.664;2023-11-19T08:04:37;21.75;;;5.82;;
63943;SDS011;50121;51.218;7.664;2023-11-19T08:07:11;22.83;;;6.05;;
63943;SDS011;50121;51.218;7.664;2023-11-19T08:09:38;21.33;;;6.10;;
63943;SDS011;50121;51.218;7.664;2023-11-19T08:12:06;26.58;;;7.22;;
63943;SDS011;50121;51.218;7.664;2023-11-19T08:14:34;19.17;;;5.57;;
63943;SDS011;50121;51.218;7.664;2023-11-19T08:17:01;17.83;;;5.85;;
63943;SDS011;50121;51.218;7.664;2023-11-19T08:19:29;25.92;;;6.15;;
63943;SDS011;50121;51.218;7.664;2023-11-19T08:21:58;21.10;;;6.80;;
63943;SDS011;50121;51.218;7.664;2023-11-19T08:24:25;17.52;;;5.65;;
63943;SDS011;50121;51.218;7.664;2023-11-19T08:26:53;18.70;;;6.13;;
63943;SDS011;50121;51.218;7.664;2023-11-19T08:29:24;20.00;;;5.88;;
63943;SDS011;50121;51.218;7.664;2023-11-19T08:31:52;22.52;;;6.00;;
63943;SDS011;50121;51.218;7.664;2023-11-19T08:34:19;13.32;;;5.78;;
63943;SDS011;50121;51.218;7.664;2023-11-19T08:36:50;13.73;;;5.93;;
63943;SDS011;50121;51.218;7.664;2023-11-19T08:39:19;19.52;;;6.05;;
63943;SDS011;50121;51.218;7.664;2023-11-19T08:41:47;22.58;;;5.93;;
63943;SDS011;50121;51.218;7.664;2023-11-19T08:44:15;16.30;;;6.38;;
63943;SDS011;50121;51.218;7.664;2023-11-19T08:46:48;16.83;;;5.57;;
63943;SDS011;50121;51.218;7.664;2023-11-19T08:49:16;22.42;;;6.45;;
63943;SDS011;50121;51.218;7.664;2023-11-19T08:51:43;18.45;;;6.88;;
63943;SDS011;50121;51.218;7.664;2023-11-19T08:54:12;21.70;;;6.00;;
63943;SDS011;50121;51.218;7.664;2023-11-19T08:56:40;22.20;;;6.57;;
63943;SDS011;50121;51.218;7.664;2023-11-19T08:59:08;20.77;;;6.20;;
63943;SDS011;50121;51.218;7.664;2023-11-19T09:01:35;19.90;;;5.78;;
63943;SDS011;50121;51.218;7.664;2023-11-19T09:04:03;25.38;;;6.28;;
63943;SDS011;50121;51.218;7.664;2023-11-19T09:06:31;18.98;;;5.70;;
63943;SDS011;50121;51.218;7.664;2023-11-19T09:08:59;20.92;;;6.40;;
63943;SDS011;50121;51.218;7.664;2023-11-19T09:11:29;21.48;;;6.40;;
63943;SDS011;50121;51.218;7.664;2023-11-19T09:13:57;17.13;;;5.80;;
63943;SDS011;50121;51.218;7.664;2023-11-19T09:16:25;14.55;;;6.18;;
63943;SDS011;50121;51.218;7.664;2023-11-19T09:18:52;19.25;;;7.00;;
63943;SDS011;50121;51.218;7.664;2023-11-19T09:21:20;17.17;;;6.10;;
63943;SDS011;50121;51.218;7.664;2023-11-19T09:23:47;22.45;;;6.18;;
63943;SDS011;50121;51.218;7.664;2023-11-19T09:26:15;21.60;;;6.10;;
63943;SDS011;50121;51.218;7.664;2023-11-19T09:28:43;16.30;;;5.65;;
63943;SDS011;50121;51.218;7.664;2023-11-19T09:31:14;17.65;;;5.70;;
63943;SDS011;50121;51.218;7.664;2023-11-19T09:33:42;18.23;;;6.07;;
63943;SDS011;50121;51.218;7.664;2023-11-19T09:36:11;15.93;;;5.80;;
63943;SDS011;50121;51.218;7.664;2023-11-19T09:38:40;22.25;;;6.47;;
63943;SDS011;50121;51.218;7.664;2023-11-19T09:41:09;12.18;;;5.47;;
63943;SDS011;50121;51.218;7.664;2023-11-19T09:43:39;20.75;;;7.10;;
63943;SDS011;50121;51.218;7.664;2023-11-19T09:46:10;19.65;;;6.50;;
63943;SDS011;50121;51.218;7.664;2023-11-19T09:48:40;28.52;;;6.93;;
63943;SDS011;50121;51.218;7.664;2023-11-19T09:51:09;19.95;;;6.80;;
63943;SDS011;50121;51.218;7.664;2023-11-19T09:53:37;23.95;;;6.07;;
63943;SDS011;50121;51.218;7.664;2023-11-19T09:56:05;19.80;;;6.60;;
63943;SDS011;50121;51.218;7.664;2023-11-19T09:58:34;19.40;;;7.10;;
63943;SDS011;50121;51.218;7.664;2023-11-19T10:01:02;13.18;;;6.05;;
63943;SDS011;50121;51.218;7.664;2023-11-19T10:03:36;19.98;;;6.80;;
63943;SDS011;50121;51.218;7.664;2023-11-19T10:06:08;20.58;;;6.15;;
63943;SDS011;50121;51.218;7.664;2023-11-19T10:08:39;22.10;;;6.50;;
63943;SDS011;50121;51.218;7.664;2023-11-19T10:11:07;19.25;;;6.57;;
63943;SDS011;50121;51.218;7.664;2023-11-19T10:13:35;16.63;;;6.65;;
63943;SDS011;50121;51.218;7.664;2023-11-19T10:16:10;26.05;;;7.03;;
63943;SDS011;50121;51.218;7.664;2023-11-19T10:18:46;17.33;;;6.50;;
63943;SDS011;50121;51.218;7.664;2023-11-19T10:21:14;22.95;;;6.90;;
63943;SDS011;50121;51.218;7.664;2023-11-19T10:23:48;17.40;;;6.10;;
63943;SDS011;50121;51.218;7.664;2023-11-19T10:26:17;24.38;;;7.40;;
63943;SDS011;50121;51.218;7.664;2023-11-19T10:28:45;21.23;;;6.60;;
63943;SDS011;50121;51.218;7.664;2023-11-19T10:31:13;24.33;;;6.35;;
63943;SDS011;50121;51.218;7.664;2023-11-19T10:33:41;22.05;;;6.80;;
63943;SDS011;50121;51.218;7.664;2023-11-19T10:36:11;15.45;;;6.10;;
63943;SDS011;50121;51.218;7.664;2023-11-19T10:38:39;28.38;;;6.80;;
63943;SDS011;50121;51.218;7.664;2023-11-19T10:41:07;27.13;;;6.57;;
63943;SDS011;50121;51.218;7.664;2023-11-19T10:43:44;20.05;;;6.85;;
63943;SDS011;50121;51.218;7.664;2023-11-19T10:46:12;23.10;;;6.75;;
63943;SDS011;50121;51.218;7.664;2023-11-19T10:48:40;21.15;;;6.75;;
63943;SDS011;50121;51.218;7.664;2023-11-19T10:51:08;23.58;;;7.20;;
63943;SDS011;50121;51.218;7.664;2023-11-19T10:53:37;29.02;;;7.20;;
63943;SDS011;50121;51.218;7.664;2023-11-19T10:56:06;28.00;;;6.70;;
63943;SDS011;50121;51.218;7.664;2023-11-19T10:58:35;18.25;;;6.35;;
63943;SDS011;50121;51.218;7.664;2023-11-19T11:01:07;18.35;;;6.55;;
63943;SDS011;50121;51.218;7.664;2023-11-19T11:03:40;20.25;;;6.93;;
63943;SDS011;50121;51.218;7.664;2023-11-19T11:06:08;18.83;;;6.90;;
63943;SDS011;50121;51.218;7.664;2023-11-19T11:08:36;20.25;;;6.80;;
63943;SDS011;50121;51.218;7.664;2023-11-19T11:11:05;24.73;;;6.80;;
63943;SDS011;50121;51.218;7.664;2023-11-19T11:13:33;12.88;;;6.45;;
63943;SDS011;50121;51.218;7.664;2023-11-19T11:16:01;16.15;;;6.50;;
63943;SDS011;50121;51.218;7.664;2023-11-19T11:18:30;19.80;;;6.30;;
63943;SDS011;50121;51.218;7.664;2023-11-19T11:21:10;22.20;;;6.68;;
63943;SDS011;50121;51.218;7.664;2023-11-19T11:26:48;17.65;;;6.15;;
63943;SDS011;50121;51.218;7.664;2023-11-19T11:29:37;19.85;;;6.43;;
63943;SDS011;50121;51.218;7.664;2023-11-19T11:32:11;16.80;;;6.70;;
63943;SDS011;50121;51.218;7.664;2023-11-19T11:39:40;22.10;;;6.65;;
63943;SDS011;50121;51.218;7.664;2023-11-19T11:55:33;14.77;;;7.03;;
63943;SDS011;50121;51.218;7.664;2023-11-19T11:58:03;16.88;;;7.00;;
63943;SDS011;50121;51.218;7.664;2023-11-19T12:00:31;23.13;;;7.47;;
63943;SDS011;50121;51.218;7.664;2023-11-19T12:03:00;14.85;;;6.60;;
63943;SDS011;50121;51.218;7.664;2023-11-19T12:05:28;21.10;;;7.10;;
63943;SDS011;50121;51.218;7.664;2023-11-19T12:07:57;14.63;;;6.68;;
63943;SDS011;50121;51.218;7.664;2023-11-19T12:10:25;16.02;;;6.68;;
63943;SDS011;50121;51.218;7.664;2023-11-19T12:12:53;17.63;;;7.10;;
63943;SDS011;50121;51.218;7.664;2023-11-19T12:15:21;15.75;;;6.70;;
63943;SDS011;50121;51.218;7.664;2023-11-19T12:17:54;15.20;;;6.93;;
63943;SDS011;50121;51.218;7.664;2023-11-19T12:20:23;16.13;;;6.43;;
63943;SDS011;50121;51.218;7.664;2023-11-19T12:22:54;12.38;;;6.35;;
63943;SDS011;50121;51.218;7.664;2023-11-19T12:25:22;23.75;;;9.68;;
63943;SDS011;50121;51.218;7.664;2023-11-19T12:27:50;30.05;;;15.63;;
63943;SDS011;50121;51.218;7.664;2023-11-19T12:32:47;18.70;;;6.60;;
63943;SDS011;50121;51.218;7.664;2023-11-19T12:35:14;16.75;;;6.28;;
63943;SDS011;50121;51.218;7.664;2023-11-19T12:37:48;15.95;;;6.50;;
63943;SDS011;50121;51.218;7.664;2023-11-19T12:40:23;16.67;;;6.63;;
63943;SDS011;50121;51.218;7.664;2023-11-19T12:42:51;16.85;;;6.43;;
63943;SDS011;50121;51.218;7.664;2023-11-19T12:45:20;19.30;;;6.57;;
63943;SDS011;50121;51.218;7.664;2023-11-19T12:47:50;21.08;;;6.45;;
63943;SDS011;50121;51.218;7.664;2023-11-19T12:50:19;15.90;;;6.40;;
63943;SDS011;50121;51.218;7.664;2023-11-19T12:52:56;17.40;;;6.32;;
63943;SDS011;50121;51.218;7.664;2023-11-19T12:57:55;13.95;;;6.07;;
63943;SDS011;50121;51.218;7.664;2023-11-19T13:00:26;18.10;;;6.50;;
63943;SDS011;50121;51.218;7.664;2023-11-19T13:03:00;13.68;;;5.85;;
63943;SDS011;50121;51.218;7.664;2023-11-19T13:05:36;14.93;;;6.53;;
63943;SDS011;50121;51.218;7.664;2023-11-19T13:08:08;17.35;;;6.88;;
63943;SDS011;50121;51.218;7.664;2023-11-19T13:13:33;10.95;;;6.20;;
63943;SDS011;50121;51.218;7.664;2023-11-19T13:16:03;15.43;;;6.30;;
63943;SDS011;50121;51.218;7.664;2023-11-19T13:18:32;17.10;;;6.47;;
63943;SDS011;50121;51.218;7.664;2023-11-19T13:21:02;17.70;;;6.60;;
63943;SDS011;50121;51.218;7.664;2023-11-19T13:23:31;15.02;;;7.47;;
63943;SDS011;50121;51.218;7.664;2023-11-19T13:25:59;11.48;;;7.00;;
63943;SDS011;50121;51.218;7.664;2023-11-19T13:28:27;15.55;;;6.72;;
63943;SDS011;50121;51.218;7.664;2023-11-19T13:30:54;15.98;;;6.68;;
63943;SDS011;50121;51.218;7.664;2023-11-19T13:33:22;21.27;;;6.97;;
63943;SDS011;50121;51.218;7.664;2023-11-19T13:35:50;17.80;;;6.80;;
63943;SDS011;50121;51.218;7.664;2023-11-19T13:38:18;12.15;;;6.45;;
63943;SDS011;50121;51.218;7.664;2023-11-19T13:40:46;12.93;;;6.30;;
63943;SDS011;50121;51.218;7.664;2023-11-19T13:43:15;12.30;;;6.43;;
63943;SDS011;50121;51.218;7.664;2023-11-19T13:45:43;15.73;;;5.95;;
63943;SDS011;50121;51.218;7.664;2023-11-19T13:48:11;15.27;;;6.95;;
63943;SDS011;50121;51.218;7.664;2023-11-19T13:50:39;14.73;;;6.50;;
63943;SDS011;50121;51.218;7.664;2023-11-19T13:53:06;11.30;;;6.85;;
63943;SDS011;50121;51.218;7.664;2023-11-19T13:55:34;17.42;;;6.28;;
63943;SDS011;50121;51.218;7.664;2023-11-19T13:58:02;15.02;;;5.95;;
63943;SDS011;50121;51.218;7.664;2023-11-19T14:00:30;13.35;;;6.45;;
63943;SDS011;50121;51.218;7.664;2023-11-19T14:02:57;11.50;;;6.30;;
63943;SDS011;50121;51.218;7.664;2023-11-19T14:05:25;14.20;;;6.88;;
63943;SDS011;50121;51.218;7.664;2023-11-19T14:07:56;11.15;;;5.90;;
63943;SDS011;50121;51.218;7.664;2023-11-19T14:10:24;21.67;;;6.65;;
63943;SDS011;50121;51.218;7.664;2023-11-19T14:12:52;16.60;;;6.85;;
63943;SDS011;50121;51.218;7.664;2023-11-19T14:15:19;15.18;;;6.80;;
63943;SDS011;50121;51.218;7.664;2023-11-19T14:17:47;13.88;;;6.75;;
63943;SDS011;50121;51.218;7.664;2023-11-19T14:20:15;12.35;;;6.40;;
63943;SDS011;50121;51.218;7.664;2023-11-19T14:22:44;12.32;;;5.97;;
63943;SDS011;50121;51.218;7.664;2023-11-19T14:25:15;14.00;;;6.63;;
63943;SDS011;50121;51.218;7.664;2023-11-19T14:27:43;12.45;;;6.20;;
63943;SDS011;50121;51.218;7.664;2023-11-19T14:30:11;20.17;;;7.03;;
63943;SDS011;50121;51.218;7.664;2023-11-19T14:32:40;13.52;;;6.47;;
63943;SDS011;50121;51.218;7.664;2023-11-19T14:35:12;16.23;;;6.55;;
63943;SDS011;50121;51.218;7.664;2023-11-19T14:37:40;13.48;;;6.80;;
63943;SDS011;50121;51.218;7.664;2023-11-19T14:40:09;11.23;;;6.32;;
63943;SDS011;50121;51.218;7.664;2023-11-19T14:42:38;12.65;;;6.40;;
63943;SDS011;50121;51.218;7.664;2023-11-19T14:45:06;13.30;;;6.60;;
63943;SDS011;50121;51.218;7.664;2023-11-19T14:47:34;15.90;;;6.57;;
63943;SDS011;50121;51.218;7.664;2023-11-19T14:50:02;8.80;;;5.82;;
63943;SDS011;50121;51.218;7.664;2023-11-19T14:52:32;17.52;;;7.38;;
63943;SDS011;50121;51.218;7.664;2023-11-19T14:55:01;17.00;;;6.10;;
63943;SDS011;50121;51.218;7.664;2023-11-19T14:57:29;14.10;;;6.85;;
63943;SDS011;50121;51.218;7.664;2023-11-19T14:59:57;14.55;;;7.72;;
63943;SDS011;50121;51.218;7.664;2023-11-19T15:02:27;16.27;;;5.95;;
63943;SDS011;50121;51.218;7.664;2023-11-19T15:04:55;12.50;;;5.90;;
63943;SDS011;50121;51.218;7.664;2023-11-19T15:07:22;20.00;;;6.90;;
63943;SDS011;50121;51.218;7.664;2023-11-19T15:09:50;17.48;;;6.45;;
63943;SDS011;50121;51.218;7.664;2023-11-19T15:12:18;8.98;;;5.65;;
63943;SDS011;50121;51.218;7.664;2023-11-19T15:15:01;11.35;;;5.88;;
63943;SDS011;50121;51.218;7.664;2023-11-19T15:17:29;13.85;;;5.55;;